Time;durP1;ratioP1;P1;durP2;ratioP2;P2;SDS_P1;SDS_P2;PMS_P1;PMS_P2;Temp;Humidity;BMP_temperature;BMP_pressure;BME280_temperature;BME280_humidity;BME280_pressure;Samples;Min_cycle;Max_cycle;Signal;HPM_P1;HPM_P2
2022/03/30 00:00:47;;;;;;;9.07;3.70;;;;;;;;;;5093102;28;20073;-86
2022/03/30 00:03:12;;;;;;;6.25;3.70;;;;;;;;;;5093401;28;20028;-84
2022/03/30 00:05:38;;;;;;;14.63;4.10;;;;;;;;;;5075395;28;20046;-84
2022/03/30 00:08:04;;;;;;;9.60;3.67;;;;;;;;;;5093079;28;20040;-84
2022/03/30 00:10:30;;;;;;;5.45;3.70;;;;;;;;;;5059327;28;20035;-84
2022/03/30 00:12:56;;;;;;;6.43;3.60;;;;;;;;;;5093685;28;20099;-84
2022/03/30 00:15:22;;;;;;;6.70;3.35;;;;;;;;;;5075559;28;20032;-84
2022/03/30 00:17:48;;;;;;;7.88;3.53;;;;;;;;;;5093138;28;20024;-83
2022/03/30 00:20:13;;;;;;;7.97;3.67;;;;;;;;;;5074894;28;20027;-83
2022/03/30 00:22:40;;;;;;;5.70;3.47;;;;;;;;;;5074845;28;20036;-84
2022/03/30 00:25:07;;;;;;;6.32;3.92;;;;;;;;;;5058517;28;20020;-83
2022/03/30 00:27:34;;;;;;;5.85;3.63;;;;;;;;;;5093019;28;20033;-83
2022/03/30 00:29:59;;;;;;;6.72;3.42;;;;;;;;;;5093263;28;20081;-84
2022/03/30 00:32:24;;;;;;;7.43;3.70;;;;;;;;;;5076642;28;20115;-84
2022/03/30 00:34:50;;;;;;;5.70;3.97;;;;;;;;;;5077392;28;20379;-84
2022/03/30 00:37:15;;;;;;;7.75;4.22;;;;;;;;;;5098816;28;20047;-84
2022/03/30 00:39:41;;;;;;;8.65;4.22;;;;;;;;;;5081720;28;20160;-84
2022/03/30 00:42:18;;;;;;;7.40;4.28;;;;;;;;;;5099195;28;20123;-86
2022/03/30 00:44:46;;;;;;;7.25;3.60;;;;;;;;;;5097711;28;20024;-85
2022/03/30 00:47:17;;;;;;;7.85;3.85;;;;;;;;;;5062612;28;20439;-84
2022/03/30 00:49:43;;;;;;;7.57;4.10;;;;;;;;;;5078673;28;20179;-84
2022/03/30 00:52:09;;;;;;;5.90;3.65;;;;;;;;;;5079509;28;20024;-85
2022/03/30 00:54:36;;;;;;;8.40;3.72;;;;;;;;;;5080641;28;20095;-84
2022/03/30 00:57:02;;;;;;;8.65;4.18;;;;;;;;;;5066417;28;20044;-84
2022/03/30 00:59:28;;;;;;;10.43;3.95;;;;;;;;;;5085220;28;20035;-84
2022/03/30 01:01:53;;;;;;;6.53;3.72;;;;;;;;;;5089748;28;20028;-84
2022/03/30 01:04:18;;;;;;;11.02;4.28;;;;;;;;;;5110172;28;20035;-85
2022/03/30 01:06:45;;;;;;;6.50;3.53;;;;;;;;;;5107206;28;20032;-85
2022/03/30 01:09:10;;;;;;;5.10;3.25;;;;;;;;;;5108178;28;20059;-86
2022/03/30 01:11:36;;;;;;;7.55;3.50;;;;;;;;;;5072682;28;20451;-86
2022/03/30 01:14:01;;;;;;;7.97;3.60;;;;;;;;;;5101939;28;20028;-86
2022/03/30 01:16:29;;;;;;;8.65;3.42;;;;;;;;;;5062602;28;20042;-86
2022/03/30 01:19:05;;;;;;;6.60;3.35;;;;;;;;;;5064611;28;20028;-85
2022/03/30 01:21:31;;;;;;;5.35;3.45;;;;;;;;;;5101149;28;20059;-84
2022/03/30 01:23:57;;;;;;;8.43;3.33;;;;;;;;;;5064399;28;20024;-84
2022/03/30 01:26:23;;;;;;;5.93;4.22;;;;;;;;;;5064391;28;20389;-84
2022/03/30 01:28:49;;;;;;;7.13;3.40;;;;;;;;;;5081385;28;20374;-83
2022/03/30 01:33:58;;;;;;;6.18;3.65;;;;;;;;;;5082430;28;20396;-85
2022/03/30 01:36:25;;;;;;;7.85;3.78;;;;;;;;;;5079684;28;20024;-85
2022/03/30 01:38:51;;;;;;;7.63;3.58;;;;;;;;;;5078340;28;20032;-86
2022/03/30 01:41:16;;;;;;;8.13;3.95;;;;;;;;;;5078369;28;20201;-85
2022/03/30 01:43:42;;;;;;;8.90;4.20;;;;;;;;;;5078298;28;20077;-86
2022/03/30 01:46:07;;;;;;;6.78;3.35;;;;;;;;;;5078480;28;20479;-85
2022/03/30 01:48:33;;;;;;;8.27;3.88;;;;;;;;;;5094892;28;20103;-85
2022/03/30 01:50:59;;;;;;;6.70;3.60;;;;;;;;;;5061431;28;20103;-85
2022/03/30 01:53:25;;;;;;;8.10;4.28;;;;;;;;;;5078296;28;20032;-86
2022/03/30 01:55:51;;;;;;;6.75;3.50;;;;;;;;;;5077784;28;20143;-85
2022/03/30 01:58:17;;;;;;;8.02;3.17;;;;;;;;;;5063177;28;20027;-85
2022/03/30 02:00:43;;;;;;;6.45;3.50;;;;;;;;;;5097289;28;20099;-85
2022/03/30 02:03:09;;;;;;;6.63;4.05;;;;;;;;;;5099170;28;20066;-85
2022/03/30 02:05:34;;;;;;;7.22;3.58;;;;;;;;;;5080902;28;20036;-84
2022/03/30 02:07:59;;;;;;;6.60;3.88;;;;;;;;;;5080123;28;20046;-83
2022/03/30 02:10:25;;;;;;;6.85;3.10;;;;;;;;;;5079429;28;20025;-84
2022/03/30 02:12:50;;;;;;;8.77;3.63;;;;;;;;;;5096294;28;20028;-84
2022/03/30 02:15:16;;;;;;;12.55;4.28;;;;;;;;;;5077777;28;20051;-84
2022/03/30 02:17:42;;;;;;;8.30;3.40;;;;;;;;;;5077678;28;20112;-86
2022/03/30 02:20:09;;;;;;;7.25;3.35;;;;;;;;;;5077403;28;20024;-85
2022/03/30 02:22:35;;;;;;;5.45;3.50;;;;;;;;;;5060473;28;20372;-87
2022/03/30 02:25:00;;;;;;;5.50;3.88;;;;;;;;;;5060970;28;20066;-87
2022/03/30 02:27:25;;;;;;;5.88;3.50;;;;;;;;;;5076998;28;20036;-87
2022/03/30 02:29:53;;;;;;;7.63;3.67;;;;;;;;;;5078549;28;20024;-87
2022/03/30 02:32:18;;;;;;;6.05;3.40;;;;;;;;;;5079584;28;20089;-87
2022/03/30 02:34:44;;;;;;;7.35;3.10;;;;;;;;;;5062132;28;20032;-86
2022/03/30 02:37:11;;;;;;;5.43;3.40;;;;;;;;;;5078742;28;20036;-87
2022/03/30 02:39:36;;;;;;;4.63;2.97;;;;;;;;;;5079065;28;20032;-87
2022/03/30 02:42:02;;;;;;;7.32;3.65;;;;;;;;;;5077914;28;20081;-87
2022/03/30 02:44:28;;;;;;;6.60;3.70;;;;;;;;;;5095259;28;20076;-87
2022/03/30 02:46:54;;;;;;;5.90;3.08;;;;;;;;;;5095690;28;20380;-87
2022/03/30 02:49:20;;;;;;;6.32;3.15;;;;;;;;;;5077259;28;20036;-87
2022/03/30 02:51:45;;;;;;;5.88;3.17;;;;;;;;;;5076742;28;20062;-87
2022/03/30 02:54:11;;;;;;;4.90;3.30;;;;;;;;;;5094677;28;20162;-87
2022/03/30 02:56:36;;;;;;;6.47;3.10;;;;;;;;;;5076323;28;20064;-87
2022/03/30 02:59:02;;;;;;;6.43;3.50;;;;;;;;;;5059921;28;20032;-86
2022/03/30 03:01:28;;;;;;;6.22;3.40;;;;;;;;;;5094655;28;20057;-86
2022/03/30 03:03:53;;;;;;;6.13;3.38;;;;;;;;;;5059895;28;20028;-86
2022/03/30 03:06:18;;;;;;;4.78;3.20;;;;;;;;;;5077032;28;20451;-87
2022/03/30 03:08:44;;;;;;;8.20;3.28;;;;;;;;;;5059135;28;20060;-86
2022/03/30 03:11:10;;;;;;;6.05;3.22;;;;;;;;;;5076055;28;20032;-86
2022/03/30 03:13:36;;;;;;;4.95;3.08;;;;;;;;;;5094356;28;20085;-86
2022/03/30 03:16:01;;;;;;;5.80;2.90;;;;;;;;;;5076396;28;20051;-85
2022/03/30 03:18:27;;;;;;;4.57;3.05;;;;;;;;;;5094990;28;20031;-83
2022/03/30 03:20:52;;;;;;;7.47;3.55;;;;;;;;;;5096935;28;20028;-84
2022/03/30 03:23:18;;;;;;;9.10;3.42;;;;;;;;;;5097694;28;20032;-84
2022/03/30 03:25:44;;;;;;;8.65;3.40;;;;;;;;;;5078625;28;20028;-86
2022/03/30 03:28:11;;;;;;;6.30;3.20;;;;;;;;;;5079394;28;20186;-84
2022/03/30 03:30:37;;;;;;;5.80;3.42;;;;;;;;;;5078464;28;20016;-84
2022/03/30 03:33:07;;;;;;;4.47;2.90;;;;;;;;;;5079402;28;20039;-86
2022/03/30 03:35:32;;;;;;;4.00;2.65;;;;;;;;;;5077145;28;20481;-85
2022/03/30 03:37:59;;;;;;;5.82;3.20;;;;;;;;;;5075420;28;20016;-85
2022/03/30 03:40:24;;;;;;;9.30;3.40;;;;;;;;;;5058975;28;20433;-86
2022/03/30 03:42:50;;;;;;;7.00;3.05;;;;;;;;;;5059003;28;20036;-87
2022/03/30 03:45:17;;;;;;;7.10;3.60;;;;;;;;;;5093445;28;20031;-87
2022/03/30 03:47:43;;;;;;;7.05;3.15;;;;;;;;;;5075877;28;20485;-86
2022/03/30 03:50:10;;;;;;;5.82;3.25;;;;;;;;;;5093319;28;20024;-84
2022/03/30 03:52:36;;;;;;;6.18;3.20;;;;;;;;;;5059274;28;20121;-85
2022/03/30 03:55:03;;;;;;;4.90;3.25;;;;;;;;;;5058984;28;20032;-85
2022/03/30 03:57:29;;;;;;;5.45;3.00;;;;;;;;;;5076043;28;20066;-85
2022/03/30 03:59:55;;;;;;;7.22;3.13;;;;;;;;;;5076259;28;20066;-85
2022/03/30 04:02:20;;;;;;;6.50;3.38;;;;;;;;;;5074988;28;20062;-85
2022/03/30 04:04:46;;;;;;;5.28;3.10;;;;;;;;;;5075156;28;20036;-85
2022/03/30 04:07:12;;;;;;;5.38;3.40;;;;;;;;;;5075532;28;20024;-85
2022/03/30 04:09:38;;;;;;;6.20;3.25;;;;;;;;;;5077579;28;20089;-83
2022/03/30 04:12:04;;;;;;;5.45;3.22;;;;;;;;;;5081353;28;20107;-84
2022/03/30 04:14:30;;;;;;;7.22;3.50;;;;;;;;;;5060290;28;20386;-86
2022/03/30 04:16:55;;;;;;;8.55;3.65;;;;;;;;;;5076291;28;20116;-86
2022/03/30 04:19:21;;;;;;;5.45;3.00;;;;;;;;;;5076009;28;20028;-89
2022/03/30 04:21:46;;;;;;;5.28;3.13;;;;;;;;;;5075340;28;20059;-88
2022/03/30 04:24:12;;;;;;;5.03;3.28;;;;;;;;;;5093154;28;20028;-83
2022/03/30 04:26:38;;;;;;;5.80;3.25;;;;;;;;;;5058467;28;20032;-84
2022/03/30 04:29:04;;;;;;;7.65;3.10;;;;;;;;;;5059105;28;20027;-84
2022/03/30 04:31:29;;;;;;;6.65;3.53;;;;;;;;;;5075094;28;20482;-86
2022/03/30 04:33:54;;;;;;;8.07;3.80;;;;;;;;;;5059128;28;20069;-85
2022/03/30 04:36:20;;;;;;;10.70;4.07;;;;;;;;;;5076349;28;20128;-84
2022/03/30 04:38:46;;;;;;;9.23;3.50;;;;;;;;;;5076715;28;20044;-84
2022/03/30 04:41:11;;;;;;;10.13;3.72;;;;;;;;;;5076573;28;20024;-82
2022/03/30 04:43:37;;;;;;;7.28;3.42;;;;;;;;;;5075436;28;20051;-85
2022/03/30 04:46:02;;;;;;;9.85;3.50;;;;;;;;;;5059253;28;20053;-85
2022/03/30 04:48:28;;;;;;;7.30;4.07;;;;;;;;;;5058406;28;20027;-87
2022/03/30 04:50:53;;;;;;;9.38;3.70;;;;;;;;;;5059634;28;20024;-86
2022/03/30 04:53:19;;;;;;;13.43;3.33;;;;;;;;;;5059108;28;20360;-86
2022/03/30 04:55:44;;;;;;;7.45;3.85;;;;;;;;;;5094431;28;20034;-82
2022/03/30 04:58:10;;;;;;;23.58;4.57;;;;;;;;;;5096379;28;20114;-83
2022/03/30 05:00:36;;;;;;;8.65;4.10;;;;;;;;;;5079044;28;20036;-83
2022/03/30 05:03:02;;;;;;;12.25;4.75;;;;;;;;;;5060675;28;20581;-82
2022/03/30 05:05:27;;;;;;;18.63;4.80;;;;;;;;;;5078369;28;20059;-92
2022/03/30 05:07:54;;;;;;;19.90;5.50;;;;;;;;;;5100059;28;20042;-88
2022/03/30 05:10:20;;;;;;;16.17;4.95;;;;;;;;;;5063147;28;20105;-93
2022/03/30 05:12:45;;;;;;;16.35;5.13;;;;;;;;;;5080792;28;20028;-94
2022/03/30 05:15:11;;;;;;;12.82;4.47;;;;;;;;;;5080527;28;20032;-90
2022/03/30 05:17:38;;;;;;;14.65;4.63;;;;;;;;;;5078848;28;20093;-93
2022/03/30 05:20:04;;;;;;;12.82;4.78;;;;;;;;;;5081036;28;20047;-93
2022/03/30 05:22:29;;;;;;;13.23;5.30;;;;;;;;;;5084364;28;20024;-93
2022/03/30 05:24:56;;;;;;;14.43;6.05;;;;;;;;;;5087003;28;20024;-94
2022/03/30 05:27:21;;;;;;;12.48;4.57;;;;;;;;;;5087047;28;20020;-93
2022/03/30 05:29:47;;;;;;;11.23;3.80;;;;;;;;;;5103165;28;20071;-94
2022/03/30 05:32:12;;;;;;;17.63;4.43;;;;;;;;;;5068744;28;20035;-94
2022/03/30 05:34:37;;;;;;;8.77;4.55;;;;;;;;;;5085515;28;20517;-94
2022/03/30 05:37:03;;;;;;;11.13;4.40;;;;;;;;;;5086140;28;20051;-94
2022/03/30 05:39:30;;;;;;;8.98;4.25;;;;;;;;;;5104585;28;20394;-94
2022/03/30 05:41:56;;;;;;;7.32;3.67;;;;;;;;;;5085878;28;20020;-93
2022/03/30 05:44:21;;;;;;;16.02;3.97;;;;;;;;;;5054372;28;20051;-92
2022/03/30 05:46:47;;;;;;;18.38;5.18;;;;;;;;;;5077236;28;20048;-93
2022/03/30 05:49:13;;;;;;;7.13;3.95;;;;;;;;;;5096914;28;20028;-93
2022/03/30 05:51:38;;;;;;;8.77;3.72;;;;;;;;;;5080840;28;20035;-93
2022/03/30 05:54:04;;;;;;;10.30;4.28;;;;;;;;;;5084882;28;20028;-93
2022/03/30 05:59:15;;;;;;;8.68;3.90;;;;;;;;;;5103926;28;20099;-92
2022/03/30 06:01:41;;;;;;;8.43;3.70;;;;;;;;;;5101477;28;20054;-93
2022/03/30 06:04:06;;;;;;;7.43;3.85;;;;;;;;;;5096911;28;20024;-93
2022/03/30 06:06:33;;;;;;;6.72;3.85;;;;;;;;;;5092368;28;20031;-93
2022/03/30 06:08:58;;;;;;;8.48;3.65;;;;;;;;;;5079251;28;20052;-93
2022/03/30 06:11:24;;;;;;;10.45;3.50;;;;;;;;;;5098161;28;20091;-93
2022/03/30 06:13:49;;;;;;;7.45;3.53;;;;;;;;;;5099640;28;20039;-93
2022/03/30 06:16:15;;;;;;;10.13;3.70;;;;;;;;;;5113641;28;20032;-91
2022/03/30 06:18:40;;;;;;;9.88;3.83;;;;;;;;;;5092828;28;20024;-91
2022/03/30 06:21:06;;;;;;;7.43;3.85;;;;;;;;;;5110929;28;20024;-93
2022/03/30 06:23:31;;;;;;;9.43;3.65;;;;;;;;;;5093369;28;20031;-92
2022/03/30 06:25:57;;;;;;;9.02;3.80;;;;;;;;;;5087445;28;20032;-93
2022/03/30 06:28:26;;;;;;;6.43;3.92;;;;;;;;;;5081849;28;20028;-93
2022/03/30 06:30:51;;;;;;;10.90;4.05;;;;;;;;;;5106458;28;20364;-93
2022/03/30 06:33:17;;;;;;;7.22;3.90;;;;;;;;;;5066148;28;20047;-94
2022/03/30 06:35:42;;;;;;;6.85;3.85;;;;;;;;;;5080549;28;20478;-92
2022/03/30 06:38:08;;;;;;;8.73;3.95;;;;;;;;;;5101661;28;20035;-93
2022/03/30 06:40:33;;;;;;;8.38;3.42;;;;;;;;;;5065651;28;20028;-92
2022/03/30 06:43:00;;;;;;;10.25;3.67;;;;;;;;;;5098871;28;20049;-92
2022/03/30 06:45:26;;;;;;;6.22;3.58;;;;;;;;;;5081479;28;20032;-85
2022/03/30 06:47:52;;;;;;;7.35;3.38;;;;;;;;;;5080905;28;20184;-90
2022/03/30 06:50:19;;;;;;;8.48;3.90;;;;;;;;;;5087751;28;20044;-92
2022/03/30 06:52:45;;;;;;;7.03;3.88;;;;;;;;;;5090376;28;20028;-91
2022/03/30 06:55:12;;;;;;;8.70;4.07;;;;;;;;;;5054485;28;20032;-92
2022/03/30 06:57:38;;;;;;;12.55;3.60;;;;;;;;;;5074342;28;20103;-92
2022/03/30 07:00:05;;;;;;;11.95;4.05;;;;;;;;;;5109335;28;20028;-92
2022/03/30 07:02:31;;;;;;;8.90;3.30;;;;;;;;;;5105546;28;20032;-93
2022/03/30 07:04:56;;;;;;;10.02;3.65;;;;;;;;;;5067656;28;20059;-92
2022/03/30 07:10:15;;;;;;;9.45;3.05;;;;;;;;;;5084419;28;20059;-91
2022/03/30 07:12:42;;;;;;;11.65;3.35;;;;;;;;;;5084962;28;20036;-94
2022/03/30 07:15:07;;;;;;;6.32;3.33;;;;;;;;;;5101874;28;20031;-83
2022/03/30 07:17:33;;;;;;;9.82;3.47;;;;;;;;;;5088080;28;20028;-87
2022/03/30 07:19:59;;;;;;;8.93;4.00;;;;;;;;;;5077473;28;20076;-91
2022/03/30 07:22:25;;;;;;;9.02;3.60;;;;;;;;;;5105733;28;20036;-91
2022/03/30 07:24:50;;;;;;;7.25;3.50;;;;;;;;;;5086590;28;20043;-91
2022/03/30 07:27:16;;;;;;;16.65;3.10;;;;;;;;;;5102048;28;20035;-91
2022/03/30 07:29:41;;;;;;;8.45;4.60;;;;;;;;;;5052298;28;20035;-93
2022/03/30 07:32:07;;;;;;;6.05;2.97;;;;;;;;;;5100447;28;20035;-89
2022/03/30 07:34:33;;;;;;;8.55;3.45;;;;;;;;;;5063181;28;20463;-92
2022/03/30 07:36:59;;;;;;;6.70;3.55;;;;;;;;;;5063968;28;20028;-92
2022/03/30 07:39:24;;;;;;;11.63;3.38;;;;;;;;;;5079750;28;20028;-93
2022/03/30 07:41:50;;;;;;;14.75;3.90;;;;;;;;;;5083715;28;20088;-94
2022/03/30 07:44:16;;;;;;;15.88;4.03;;;;;;;;;;5068984;28;20028;-92
2022/03/30 07:46:43;;;;;;;8.38;3.13;;;;;;;;;;5062970;28;20053;-86
2022/03/30 07:49:08;;;;;;;8.27;3.65;;;;;;;;;;5081213;28;20057;-91
2022/03/30 07:51:34;;;;;;;8.38;3.55;;;;;;;;;;5096846;28;20028;-93
2022/03/30 07:54:00;;;;;;;24.63;4.00;;;;;;;;;;5047804;28;20479;-93
2022/03/30 07:56:25;;;;;;;8.80;3.45;;;;;;;;;;5047768;28;20054;-93
2022/03/30 07:58:51;;;;;;;8.98;3.58;;;;;;;;;;5077475;28;20035;-90
2022/03/30 08:01:20;;;;;;;7.78;3.85;;;;;;;;;;5077452;28;20026;-88
2022/03/30 08:03:45;;;;;;;11.05;3.47;;;;;;;;;;5080810;28;20108;-89
2022/03/30 08:06:12;;;;;;;12.88;4.22;;;;;;;;;;5077241;28;20421;-86
2022/03/30 08:08:39;;;;;;;13.60;4.18;;;;;;;;;;5096427;28;20048;-86
2022/03/30 08:11:06;;;;;;;12.52;4.07;;;;;;;;;;5046464;28;20093;-87
2022/03/30 08:13:31;;;;;;;7.82;3.60;;;;;;;;;;5060411;28;20063;-88
2022/03/30 08:15:57;;;;;;;8.85;4.30;;;;;;;;;;5079181;28;20395;-90
2022/03/30 08:18:22;;;;;;;9.88;4.10;;;;;;;;;;5095881;28;20027;-91
2022/03/30 08:23:35;;;;;;;5.00;3.30;;;;;;;;;;5080053;28;20039;-91
2022/03/30 08:26:01;;;;;;;9.43;3.40;;;;;;;;;;5077298;28;20539;-90
2022/03/30 08:28:27;;;;;;;11.45;3.72;;;;;;;;;;5076861;28;20111;-89
2022/03/30 08:30:53;;;;;;;8.45;3.67;;;;;;;;;;5076779;28;20028;-88
2022/03/30 08:33:23;;;;;;;7.28;3.10;;;;;;;;;;5076637;28;20043;-89
2022/03/30 08:35:50;;;;;;;4.55;2.90;;;;;;;;;;5061946;28;20028;-90
2022/03/30 08:38:16;;;;;;;11.40;3.30;;;;;;;;;;5076065;28;20032;-89
2022/03/30 08:40:41;;;;;;;9.98;2.90;;;;;;;;;;5061929;28;20046;-92
2022/03/30 08:43:07;;;;;;;10.45;3.25;;;;;;;;;;5078105;28;20028;-91
2022/03/30 08:45:32;;;;;;;8.20;2.90;;;;;;;;;;5076160;28;20437;-88
2022/03/30 08:47:58;;;;;;;7.95;3.13;;;;;;;;;;5094405;28;20028;-91
2022/03/30 08:50:23;;;;;;;8.75;2.75;;;;;;;;;;5075956;28;20487;-91
2022/03/30 08:52:49;;;;;;;3.83;2.67;;;;;;;;;;5059544;28;20051;-90
2022/03/30 08:55:16;;;;;;;5.25;2.58;;;;;;;;;;5077599;28;20032;-89
2022/03/30 08:57:42;;;;;;;5.38;2.75;;;;;;;;;;5045018;28;20031;-90
2022/03/30 09:00:19;;;;;;;5.10;2.63;;;;;;;;;;5079458;28;20028;-88
2022/03/30 09:02:49;;;;;;;6.18;2.60;;;;;;;;;;5080577;28;20024;-88
2022/03/30 09:05:21;;;;;;;4.43;2.88;;;;;;;;;;5063647;28;20034;-90
2022/03/30 09:07:49;;;;;;;6.57;2.97;;;;;;;;;;5080916;28;20019;-89
2022/03/30 09:10:18;;;;;;;4.78;2.53;;;;;;;;;;5079687;28;20097;-91
2022/03/30 09:12:44;;;;;;;6.32;2.88;;;;;;;;;;5063082;28;20024;-89
2022/03/30 09:15:10;;;;;;;9.30;2.75;;;;;;;;;;5079548;28;20201;-85
2022/03/30 09:17:37;;;;;;;7.65;2.33;;;;;;;;;;5046579;28;20032;-87
2022/03/30 09:20:06;;;;;;;19.00;2.60;;;;;;;;;;5097767;28;20023;-88
2022/03/30 09:22:33;;;;;;;10.77;2.80;;;;;;;;;;5079258;28;20119;-89
2022/03/30 09:25:00;;;;;;;10.02;2.70;;;;;;;;;;5079423;28;20479;-89
2022/03/30 09:27:26;;;;;;;11.73;2.50;;;;;;;;;;5062978;28;20028;-88
2022/03/30 09:29:51;;;;;;;7.15;2.45;;;;;;;;;;5047157;28;20028;-91
2022/03/30 09:32:17;;;;;;;4.22;2.70;;;;;;;;;;5082811;28;20091;-86
2022/03/30 09:34:51;;;;;;;8.45;2.75;;;;;;;;;;5086463;28;20024;-85
2022/03/30 09:37:16;;;;;;;5.88;2.47;;;;;;;;;;5074929;28;20086;-85
2022/03/30 09:39:43;;;;;;;5.00;2.65;;;;;;;;;;5089497;28;20467;-88
2022/03/30 09:42:10;;;;;;;6.97;2.72;;;;;;;;;;5051486;28;20031;-85
2022/03/30 09:44:49;;;;;;;8.80;3.03;;;;;;;;;;5085661;28;20055;-90
2022/03/30 09:47:15;;;;;;;11.88;2.90;;;;;;;;;;5084596;28;20055;-86
2022/03/30 09:49:42;;;;;;;7.68;3.05;;;;;;;;;;5082183;28;20379;-85
2022/03/30 09:52:19;;;;;;;4.35;2.70;;;;;;;;;;5069872;28;20399;-84
2022/03/30 09:54:53;;;;;;;8.45;2.67;;;;;;;;;;5090056;28;20028;-85
2022/03/30 09:57:34;;;;;;;6.78;2.97;;;;;;;;;;5087982;28;20028;-85
2022/03/30 10:00:04;;;;;;;7.30;2.97;;;;;;;;;;5100721;28;20370;-85
2022/03/30 10:02:32;;;;;;;5.32;2.72;;;;;;;;;;5098745;28;20032;-85
2022/03/30 10:04:59;;;;;;;6.80;3.00;;;;;;;;;;5098678;28;20024;-84
2022/03/30 10:07:27;;;;;;;5.80;2.85;;;;;;;;;;5063483;28;20394;-85
2022/03/30 10:09:52;;;;;;;8.15;2.80;;;;;;;;;;5077116;28;20085;-86
2022/03/30 10:12:19;;;;;;;6.25;3.00;;;;;;;;;;5078445;28;20044;-84
2022/03/30 10:14:46;;;;;;;6.70;2.85;;;;;;;;;;5062170;28;20027;-84
2022/03/30 10:17:13;;;;;;;5.93;2.67;;;;;;;;;;5096579;28;20536;-82
2022/03/30 10:19:46;;;;;;;5.10;3.30;;;;;;;;;;5078037;28;20030;-83
2022/03/30 10:22:18;;;;;;;6.40;2.80;;;;;;;;;;5078591;28;20089;-81
2022/03/30 10:24:56;;;;;;;4.22;2.72;;;;;;;;;;5095938;28;20244;-84
2022/03/30 10:27:54;;;;;;;4.53;2.72;;;;;;;;;;5078151;28;20474;-83
2022/03/30 10:30:29;;;;;;;4.55;2.85;;;;;;;;;;5077808;28;20020;-83
2022/03/30 10:33:00;;;;;;;5.15;2.83;;;;;;;;;;5078087;28;20027;-82
2022/03/30 10:35:46;;;;;;;8.23;2.55;;;;;;;;;;5060712;28;20155;-82
2022/03/30 10:38:13;;;;;;;6.57;2.22;;;;;;;;;;5078365;28;20038;-81
2022/03/30 10:40:39;;;;;;;3.30;2.05;;;;;;;;;;5060919;28;20448;-82
2022/03/30 10:43:07;;;;;;;4.38;2.20;;;;;;;;;;5077925;28;20039;-82
2022/03/30 10:45:41;;;;;;;4.43;2.30;;;;;;;;;;5060646;28;20027;-82
2022/03/30 10:48:09;;;;;;;3.70;1.90;;;;;;;;;;5095096;28;20073;-82
2022/03/30 10:50:43;;;;;;;4.07;2.20;;;;;;;;;;5077159;28;20024;-82
2022/03/30 10:53:30;;;;;;;5.55;2.03;;;;;;;;;;5077299;28;20032;-81
2022/03/30 10:56:19;;;;;;;2.65;1.88;;;;;;;;;;5095263;28;20016;-82
2022/03/30 10:58:55;;;;;;;3.08;1.60;;;;;;;;;;5079065;28;20471;-80
2022/03/30 11:01:28;;;;;;;7.50;1.70;;;;;;;;;;5095264;28;20024;-82
2022/03/30 11:03:59;;;;;;;4.85;1.83;;;;;;;;;;5094834;28;20028;-82
2022/03/30 11:06:25;;;;;;;4.78;1.67;;;;;;;;;;5077516;28;20475;-79
2022/03/30 11:08:55;;;;;;;2.78;1.70;;;;;;;;;;5060161;28;20482;-81
2022/03/30 11:11:30;;;;;;;5.80;1.83;;;;;;;;;;5095595;28;20562;-83
2022/03/30 11:14:24;;;;;;;5.93;1.70;;;;;;;;;;5062183;28;20036;-80
2022/03/30 11:16:52;;;;;;;4.50;1.50;;;;;;;;;;5096913;28;20016;-83
2022/03/30 11:19:18;;;;;;;8.02;1.75;;;;;;;;;;5062915;28;20020;-80
2022/03/30 11:22:07;;;;;;;5.32;1.70;;;;;;;;;;5095863;28;20024;-81
2022/03/30 11:24:32;;;;;;;5.15;1.50;;;;;;;;;;5096573;28;20024;-81
2022/03/30 11:26:58;;;;;;;4.63;1.33;;;;;;;;;;5076603;28;20024;-82
2022/03/30 11:29:47;;;;;;;7.07;1.60;;;;;;;;;;5077339;28;20522;-81
2022/03/30 11:32:18;;;;;;;1.73;1.20;;;;;;;;;;5096888;28;20024;-81
2022/03/30 11:34:45;;;;;;;4.47;1.98;;;;;;;;;;5096977;28;20044;-81
2022/03/30 11:37:11;;;;;;;1.38;1.20;;;;;;;;;;5065997;28;20045;-82
2022/03/30 11:39:39;;;;;;;2.28;1.40;;;;;;;;;;5097039;28;20390;-81
2022/03/30 11:42:04;;;;;;;3.45;1.42;;;;;;;;;;5077358;28;20040;-83
2022/03/30 11:47:17;;;;;;;11.15;1.73;;;;;;;;;;5081436;28;20035;-81
2022/03/30 11:49:50;;;;;;;2.67;1.30;;;;;;;;;;5061743;28;20547;-81
2022/03/30 11:52:17;;;;;;;2.53;1.52;;;;;;;;;;5061596;28;20036;-80
2022/03/30 11:54:47;;;;;;;2.38;1.10;;;;;;;;;;5077702;28;20020;-80
2022/03/30 11:57:13;;;;;;;4.15;1.23;;;;;;;;;;5063051;28;20024;-80
2022/03/30 11:59:39;;;;;;;2.40;1.15;;;;;;;;;;5061207;28;20039;-82
2022/03/30 12:02:04;;;;;;;3.17;1.35;;;;;;;;;;5063637;28;20118;-79
2022/03/30 12:04:31;;;;;;;3.50;1.15;;;;;;;;;;5060489;28;20028;-79
2022/03/30 12:06:57;;;;;;;1.88;1.20;;;;;;;;;;5061490;28;20028;-80
2022/03/30 12:09:22;;;;;;;5.35;1.80;;;;;;;;;;5075656;28;20131;-80
2022/03/30 12:11:49;;;;;;;3.75;1.30;;;;;;;;;;5059272;28;20040;-79
2022/03/30 12:14:24;;;;;;;4.57;1.40;;;;;;;;;;5076484;28;20034;-79
2022/03/30 12:16:50;;;;;;;1.85;1.05;;;;;;;;;;5076063;28;20027;-79
2022/03/30 12:19:16;;;;;;;4.28;1.10;;;;;;;;;;5075784;28;20123;-80
2022/03/30 12:21:42;;;;;;;1.48;1.10;;;;;;;;;;5076160;28;20070;-80
2022/03/30 12:24:12;;;;;;;2.33;1.15;;;;;;;;;;5059394;28;20503;-79
2022/03/30 12:26:40;;;;;;;4.35;0.82;;;;;;;;;;5094352;28;20048;-79
2022/03/30 12:29:14;;;;;;;1.17;1.02;;;;;;;;;;5075494;28;20035;-79
2022/03/30 12:31:59;;;;;;;2.90;1.10;;;;;;;;;;5059063;28;20082;-80
2022/03/30 12:34:26;;;;;;;5.80;1.00;;;;;;;;;;5047158;28;20031;-80
2022/03/30 12:36:54;;;;;;;2.88;1.33;;;;;;;;;;5063618;28;20024;-80
2022/03/30 12:39:33;;;;;;;0.75;0.75;;;;;;;;;;5079956;28;20119;-81
2022/03/30 12:42:03;;;;;;;1.45;1.05;;;;;;;;;;5080913;28;20023;-80
2022/03/30 12:44:33;;;;;;;2.10;1.23;;;;;;;;;;5100506;28;20039;-79
2022/03/30 12:47:01;;;;;;;3.13;1.23;;;;;;;;;;5080828;28;20027;-80
2022/03/30 12:49:41;;;;;;;1.42;0.95;;;;;;;;;;5081063;28;20177;-79
2022/03/30 12:52:15;;;;;;;0.90;0.90;;;;;;;;;;5080811;28;20099;-80
2022/03/30 12:54:43;;;;;;;1.15;1.05;;;;;;;;;;5080541;28;20120;-80
2022/03/30 12:57:09;;;;;;;3.33;1.05;;;;;;;;;;5063606;28;20056;-80
2022/03/30 12:59:35;;;;;;;1.75;0.93;;;;;;;;;;5082254;28;20024;-79
2022/03/30 13:02:21;;;;;;;1.10;1.00;;;;;;;;;;5065691;28;20100;-80
2022/03/30 13:04:51;;;;;;;2.65;1.20;;;;;;;;;;5067182;28;20073;-81
2022/03/30 13:07:21;;;;;;;1.15;0.90;;;;;;;;;;5084048;28;20012;-81
2022/03/30 13:09:59;;;;;;;0.90;0.90;;;;;;;;;;5064661;28;20048;-81
2022/03/30 13:12:51;;;;;;;1.10;0.90;;;;;;;;;;5098388;28;20096;-81
2022/03/30 13:15:18;;;;;;;1.52;0.90;;;;;;;;;;5084122;28;20080;-80
2022/03/30 13:18:04;;;;;;;1.13;0.82;;;;;;;;;;5103568;28;20024;-80
2022/03/30 13:20:32;;;;;;;1.05;0.90;;;;;;;;;;5083482;28;20023;-81
2022/03/30 13:23:02;;;;;;;0.95;0.90;;;;;;;;;;5064700;28;20046;-80
2022/03/30 13:25:31;;;;;;;3.53;1.02;;;;;;;;;;5065089;28;20028;-80
2022/03/30 13:27:56;;;;;;;1.58;0.93;;;;;;;;;;5081260;28;20401;-81
2022/03/30 13:30:22;;;;;;;1.30;0.77;;;;;;;;;;5084492;28;20116;-78
2022/03/30 13:32:48;;;;;;;1.35;0.82;;;;;;;;;;5082491;28;20131;-80
2022/03/30 13:35:13;;;;;;;1.25;0.77;;;;;;;;;;5083918;28;20032;-79
2022/03/30 13:37:39;;;;;;;2.35;0.80;;;;;;;;;;5068992;28;20465;-77
2022/03/30 13:40:05;;;;;;;0.90;0.80;;;;;;;;;;5102343;28;20048;-86
2022/03/30 13:42:34;;;;;;;2.60;0.88;;;;;;;;;;5067150;28;20028;-80
2022/03/30 13:45:00;;;;;;;0.70;0.60;;;;;;;;;;5081274;28;20396;-82
2022/03/30 13:47:27;;;;;;;0.73;0.70;;;;;;;;;;5082521;28;20039;-82
2022/03/30 13:49:53;;;;;;;2.05;1.13;;;;;;;;;;5064681;28;20034;-81
2022/03/30 13:52:19;;;;;;;1.33;1.08;;;;;;;;;;5063759;28;20032;-83
2022/03/30 13:54:44;;;;;;;1.13;0.80;;;;;;;;;;5079466;28;20106;-82
2022/03/30 13:57:10;;;;;;;1.83;1.20;;;;;;;;;;5080138;28;20032;-81
2022/03/30 13:59:35;;;;;;;1.05;0.98;;;;;;;;;;5080576;28;20463;-81
2022/03/30 14:02:02;;;;;;;1.48;1.05;;;;;;;;;;5065581;28;20059;-83
2022/03/30 14:04:27;;;;;;;1.52;0.80;;;;;;;;;;5064547;28;20047;-81
2022/03/30 14:06:54;;;;;;;1.00;0.90;;;;;;;;;;5080787;28;20048;-81
2022/03/30 14:09:20;;;;;;;1.00;0.80;;;;;;;;;;5075716;28;20476;-81
2022/03/30 14:11:45;;;;;;;0.70;0.70;;;;;;;;;;5059609;28;20043;-81
2022/03/30 14:14:11;;;;;;;0.82;0.80;;;;;;;;;;5075066;28;20115;-81
2022/03/30 14:16:36;;;;;;;1.77;0.93;;;;;;;;;;5075591;28;20093;-81
2022/03/30 14:19:01;;;;;;;2.30;0.88;;;;;;;;;;5074921;28;20410;-82
2022/03/30 14:21:27;;;;;;;1.10;0.90;;;;;;;;;;5074730;28;20025;-81
2022/03/30 14:23:53;;;;;;;1.90;1.00;;;;;;;;;;5076835;28;20028;-81
2022/03/30 14:26:18;;;;;;;1.25;1.13;;;;;;;;;;5075167;28;20043;-83
2022/03/30 14:28:43;;;;;;;2.65;1.02;;;;;;;;;;5076246;28;20058;-83
2022/03/30 14:31:09;;;;;;;0.90;0.90;;;;;;;;;;5077423;28;20039;-81
2022/03/30 14:33:34;;;;;;;2.53;1.00;;;;;;;;;;5077379;28;20028;-82
2022/03/30 14:36:00;;;;;;;1.65;1.08;;;;;;;;;;5060329;28;20041;-79
2022/03/30 14:38:26;;;;;;;4.72;1.20;;;;;;;;;;5077342;28;20052;-81
2022/03/30 14:40:52;;;;;;;1.05;0.95;;;;;;;;;;5059158;28;20035;-83
2022/03/30 14:43:20;;;;;;;2.55;1.20;;;;;;;;;;5074826;28;20025;-84
2022/03/30 14:45:46;;;;;;;1.27;0.88;;;;;;;;;;5074985;28;20047;-83
2022/03/30 14:48:11;;;;;;;1.45;0.88;;;;;;;;;;5041914;28;20479;-82
2022/03/30 14:50:40;;;;;;;0.80;0.80;;;;;;;;;;5076372;28;20082;-83
2022/03/30 14:53:06;;;;;;;0.80;0.80;;;;;;;;;;5059582;28;20036;-83
2022/03/30 14:55:32;;;;;;;0.85;0.85;;;;;;;;;;5075313;28;20048;-83